Data for 09/12/2015

Time Sea-Level Adjusted Pressure Absolute Pressure Temperature Relative Humidity Dew Point   
(mb) (inHg) (mb) (inHg) (C) (F) (%) (C) (F)
00:05 1023 30.21 853 25.19 14.3 57.8 39 0.7 33.3
00:10 1023 30.21 853 25.19 14.5 58.1 41 1.4 34.5
00:15 1023 30.21 853 25.19 14.2 57.5 41 1.2 34.2
00:20 1023 30.21 853 25.19 14.2 57.5 41 1.1 34
00:25 1023 30.21 853 25.19 14.6 58.2 39 0.9 33.6
00:30 1023 30.21 853 25.19 14.8 58.7 40 1.3 34.4
00:35 1024 30.24 853 25.19 14.5 58.1 40 1 33.9
00:40 1024 30.24 853 25.19 14.7 58.5 40 1.5 34.7
00:45 1024 30.24 853 25.19 14.5 58.1 39 0.8 33.4
00:50 1023 30.21 853 25.19 15 59 40 1.6 35
00:55 1023 30.21 853 25.19 14.3 57.7 42 1.7 35
01:00 1023 30.21 853 25.19 14.3 57.7 39 0.7 33.2
01:05 1023 30.21 853 25.19 14.7 58.4 39 0.8 33.4
01:10 1023 30.21 853 25.19 14.4 57.8 40 1.1 33.9
01:15 1023 30.21 853 25.19 14.3 57.8 40 1 33.9
01:20 1023 30.21 853 25.19 14.3 57.8 42 1.5 34.8
01:25 1023 30.21 853 25.19 13.9 56.9 44 2 35.6
01:30 1023 30.21 853 25.19 13.4 56.2 46 2 35.6
01:35 1023 30.21 853 25.19 13.1 55.5 45 1.4 34.5
01:40 1023 30.21 853 25.19 13.6 56.5 41 0.7 33.3
01:45 1023 30.21 853 25.19 13.9 57.1 41 1 33.8
01:50 1023 30.21 853 25.19 13.7 56.7 42 1.2 34.1
01:55 1023 30.21 853 25.19 13.4 56.1 43 1.2 34.2
02:00 1023 30.21 853 25.19 13.4 56.1 42 0.8 33.5
02:05 1023 30.21 852 25.16 13.7 56.6 42 1 33.8
02:10 1023 30.21 852 25.16 13.5 56.3 43 1.1 34
02:15 1023 30.21 852 25.16 13.3 55.9 45 1.6 34.8
02:20 1023 30.21 852 25.16 13 55.5 43 0.9 33.6
02:25 1023 30.21 852 25.16 13.2 55.7 44 1.2 34.1
02:30 1023 30.21 852 25.16 12.8 55 46 1.4 34.5
02:35 1023 30.21 852 25.16 12.4 54.3 46 1.3 34.3
02:40 1023 30.21 852 25.16 12.3 54.1 47 1.4 34.6
02:45 1023 30.21 852 25.16 12.1 53.7 47 1.1 34
02:50 1023 30.21 852 25.16 12.2 53.9 47 1.2 34.2
02:55 1023 30.21 852 25.16 12.3 54.2 45 0.9 33.6
03:00 1023 30.21 852 25.16 12.8 55 43 0.7 33.3
03:05 1023 30.21 852 25.16 13.2 55.7 46 1.9 35.4
03:10 1023 30.21 852 25.16 12.8 55 46 1.5 34.8
03:15 1023 30.21 852 25.16 12.6 54.8 47 1.7 35.1
03:20 1023 30.21 852 25.16 12.8 55.1 42 0.3 32.5
03:25 1023 30.21 852 25.16 13.5 56.3 43 1.1 34
03:30 1023 30.21 852 25.16 13.4 56.1 43 1.1 34
03:35 1023 30.21 852 25.16 13.1 55.5 45 1.3 34.4
03:40 1023 30.21 852 25.16 12.7 54.8 46 1.5 34.7
03:45 1023 30.21 852 25.16 12.3 54.1 47 1.4 34.5
03:50 1023 30.21 852 25.16 12.2 53.9 46 0.8 33.5
03:55 1023 30.21 852 25.16 12.7 54.9 45 1.1 33.9
04:00 1023 30.21 852 25.16 12.9 55.2 44 1.1 34.1
04:05 1023 30.21 852 25.16 12.8 55.1 45 1.3 34.4
04:10 1023 30.21 852 25.16 12.6 54.6 46 1.4 34.5
04:15 1023 30.21 852 25.16 12.4 54.2 47 1.4 34.6
04:20 1023 30.21 852 25.16 11.9 53.3 49 1.5 34.8
04:25 1023 30.21 852 25.16 11.9 53.4 48 1.2 34.2
04:30 1023 30.21 852 25.16 12.1 53.8 47 1.2 34.2
04:35 1023 30.21 852 25.16 12.3 54.1 47 1.2 34.2
04:40 1023 30.21 852 25.16 12.2 53.9 48 1.5 34.7
04:45 1023 30.21 852 25.16 11.9 53.4 49 1.5 34.7
04:50 1023 30.21 852 25.16 11.7 53.1 50 1.6 34.9
04:55 1023 30.21 852 25.16 11.7 53 49 1.3 34.4
05:00 1023 30.21 852 25.16 11.8 53.2 49 1.5 34.7
05:05 1023 30.21 852 25.16 11.7 53 50 1.7 35
05:10 1023 30.21 852 25.16 11.4 52.5 51 1.6 34.8
05:15 1023 30.21 852 25.16 11.3 52.3 51 1.6 34.8
05:20 1023 30.21 852 25.16 11.1 52.1 51 1.5 34.7
05:25 1023 30.21 852 25.16 11.5 52.6 50 1.4 34.5
05:30 1023 30.21 852 25.16 11.7 53.1 49 1.3 34.3
05:35 1023 30.21 852 25.16 12 53.6 47 1.1 33.9
05:40 1023 30.21 852 25.16 12.3 54.2 47 1.4 34.4
05:45 1023 30.21 852 25.16 12.3 54.1 47 1.4 34.5
05:50 1023 30.21 852 25.16 12.1 53.8 48 1.5 34.7
05:55 1023 30.21 852 25.16 12 53.6 48 1.3 34.4
06:00 1023 30.21 852 25.16 12.1 53.8 47 1.3 34.4
06:05 1023 30.21 852 25.16 12.1 53.8 47 1.3 34.4
06:10 1023 30.21 852 25.16 12.1 53.8 48 1.3 34.4
06:15 1023 30.21 852 25.16 12 53.6 47 1.2 34.1
06:20 1023 30.21 852 25.16 12.2 54 47 1.4 34.5
06:25 1023 30.21 852 25.16 12.2 53.9 48 1.5 34.7
06:30 1023 30.21 852 25.16 12 53.6 48 1.5 34.6
06:35 1023 30.21 852 25.16 12.1 53.8 48 1.4 34.5
06:40 1023 30.21 852 25.16 12.3 54.1 47 1.4 34.6
06:45 1023 30.21 852 25.16 12.4 54.3 47 1.6 34.9
06:50 1023 30.21 852 25.16 12.5 54.6 47 1.5 34.7
06:55 1023 30.21 852 25.16 12.9 55.3 45 1.5 34.7
07:00 1023 30.21 852 25.16 13.2 55.8 45 1.5 34.7
07:05 1023 30.21 852 25.16 13.4 56.2 45 1.8 35.2
07:10 1023 30.21 852 25.16 13.6 56.4 44 1.8 35.2
07:15 1023 30.21 852 25.16 13.9 57 43 1.7 35.1
07:20 1023 30.21 852 25.16 14.3 57.8 42 1.8 35.2
07:25 1023 30.21 852 25.16 14.6 58.3 43 2.1 35.8
07:30 1023 30.21 852 25.16 14.7 58.5 43 2.3 36.1
07:35 1023 30.21 852 25.16 14.7 58.4 44 2.7 36.9
07:40 1023 30.21 852 25.16 14.5 58.2 44 2.5 36.5
07:45 1023 30.21 852 25.16 14.9 58.8 45 3.1 37.5
07:50 1023 30.21 852 25.16 15.4 59.7 43 3 37.3
07:55 1023 30.21 852 25.16 15.7 60.2 41 2.4 36.4
08:00 1023 30.21 852 25.16 15.9 60.5 40 2.5 36.5
08:05 1023 30.21 852 25.16 16.4 61.4 38 2.2 36
08:10 1023 30.21 852 25.16 17 62.6 38 2.6 36.6
08:15 1023 30.21 852 25.16 18 64.4 34 1.9 35.4
08:20 1023 30.21 852 25.16 19.1 66.3 32 2 35.6
08:25 1023 30.21 852 25.16 19.6 67.3 30 1.9 35.4
08:30 1023 30.21 852 25.16 19.6 67.3 31 2.3 36.2
08:35 1023 30.21 852 25.16 19.8 67.6 33 3 37.4
08:40 1023 30.21 852 25.16 20.1 68.1 32 3 37.4
08:45 1023 30.21 852 25.16 20.1 68.1 31 2.4 36.4
08:50 1023 30.21 852 25.16 20 67.9 31 2.5 36.5
08:55 1023 30.21 852 25.16 20.3 68.6 30 2.3 36.2
09:00 1023 30.21 852 25.16 20.5 68.9 30 2.6 36.8
09:05 1023 30.21 852 25.16 20.5 68.9 30 2.6 36.7
09:10 1023 30.21 852 25.16 21.1 69.9 29 2.4 36.3
09:15 1023 30.21 852 25.16 21.3 70.4 29 2.6 36.7
09:20 1023 30.21 852 25.16 21.3 70.4 28 2.3 36.1
09:25 1023 30.21 852 25.16 21.8 71.2 28 2.4 36.4
09:30 1023 30.21 852 25.16 22.2 72 27 2.8 37
09:35 1023 30.21 852 25.16 22.2 72 27 2.5 36.5
09:40 1023 30.21 852 25.16 22.4 72.3 27 2.5 36.6
09:45 1023 30.21 852 25.16 22 71.6 28 2.7 36.9
09:50 1023 30.21 852 25.16 22.5 72.4 26 2.5 36.5
09:55 1023 30.21 852 25.16 23 73.4 26 2.9 37.2
10:00 1023 30.21 852 25.16 22.6 72.6 26 2.4 36.3
10:05 1023 30.21 852 25.16 22.7 72.8 26 2.5 36.5
10:10 1023 30.21 852 25.16 22.9 73.3 25 2.3 36.2
10:15 1023 30.21 852 25.16 23 73.4 26 2.7 36.9
10:20 1023 30.21 852 25.16 23.2 73.7 26 3 37.4
10:25 1023 30.21 852 25.16 23.5 74.3 25 2.8 37.1
10:30 1023 30.21 852 25.16 23.5 74.2 26 3.2 37.8
10:35 1023 30.21 852 25.16 23.9 75 25 2.8 37
10:40 1023 30.21 852 25.16 24.5 76 23 2.5 36.4
10:45 1023 30.21 852 25.16 24.5 76.1 24 3 37.3
10:50 1022 30.18 852 25.16 24.3 75.7 24 2.8 37
10:55 1022 30.18 852 25.16 24.7 76.5 23 2.4 36.4
11:00 1022 30.18 852 25.16 24.9 76.9 24 3 37.4
11:05 1022 30.18 851 25.13 24.9 76.8 23 2.5 36.5
11:10 1022 30.18 851 25.13 24.9 76.9 22 1.8 35.3
11:15 1022 30.18 851 25.13 25.5 77.9 21 1.7 35
11:20 1022 30.18 851 25.13 25.8 78.5 20 1.8 35.2
11:25 1022 30.18 851 25.13 25.6 78.1 21 2.2 35.9
11:30 1022 30.18 851 25.13 25.9 78.5 21 2.4 36.4
11:35 1022 30.18 851 25.13 26.3 79.3 21 2.5 36.5
11:40 1022 30.18 851 25.13 26.4 79.4 20 2.2 35.9
11:45 1022 30.18 851 25.13 26.6 79.9 21 2.9 37.2
11:50 1022 30.18 851 25.13 26.1 79 21 2.4 36.4
11:55 1022 30.18 851 25.13 26 78.7 20 1.6 34.9
12:00 1022 30.18 851 25.13 26 78.8 20 1.4 34.5
12:05 1022 30.18 851 25.13 26.7 80.1 19 1.4 34.5
12:10 1022 30.18 851 25.13 26.7 80 20 2 35.5
12:15 1021 30.15 851 25.13 26.2 79.1 20 1.8 35.3
12:20 1021 30.15 851 25.13 26.3 79.3 19 1.3 34.3
12:25 1021 30.15 851 25.13 26 78.8 19 1.1 33.9
12:30 1021 30.15 851 25.13 25.9 78.7 19 0.6 33.1
12:35 1021 30.15 850 25.1 27 80.6 18 0.7 33.2
12:40 1021 30.15 850 25.1 27.5 81.6 17 0.8 33.4
12:45 1021 30.15 850 25.1 27.9 82.1 18 1.4 34.6
12:50 1021 30.15 850 25.1 27.8 82 18 1.2 34.1
12:55 1021 30.15 850 25.1 27.8 82.1 15 -0.5 31
13:00 1021 30.15 850 25.1 27.8 82 15 -0.7 30.8
13:05 1021 30.15 850 25.1 27.8 82 15 -1 30.1
13:10 1021 30.15 850 25.1 27.9 82.2 16 0.1 32.2
13:15 1021 30.15 850 25.1 27.8 82 15 -1 30.3
13:20 1021 30.15 850 25.1 27.8 82 17 0.5 32.9
13:25 1021 30.15 850 25.1 28.1 82.6 15 -0.5 31.2
13:30 1020 30.12 850 25.1 28.3 82.9 15 -0.3 31.4
13:35 1020 30.12 850 25.1 28.3 83 14 -1.4 29.5
13:40 1020 30.12 849 25.07 28.7 83.7 14 -1 30.3
13:45 1020 30.12 849 25.07 28.9 84.1 14 -1.2 29.8
13:50 1020 30.12 849 25.07 29 84.1 14 -0.5 31.1
13:55 1020 30.12 849 25.07 28.9 84.1 14 -0.7 30.7
14:00 1020 30.12 849 25.07 29 84.3 14 -1.2 29.8
14:05 1020 30.12 849 25.07 29.1 84.4 13 -1.7 28.9
14:10 1020 30.12 849 25.07 29.4 85 13 -1.3 29.7
14:15 1020 30.12 849 25.07 29.1 84.4 13 -1.4 29.5
14:20 1020 30.12 849 25.07 28.7 83.7 13 -1.9 28.6
14:25 1020 30.12 849 25.07 29.3 84.7 13 -1.4 29.4
14:30 1020 30.12 849 25.07 29.2 84.5 14 -0.6 31
14:35 1020 30.12 849 25.07 29.4 84.8 13 -1.3 29.7
14:40 1019 30.09 849 25.07 29.4 85 14 -0.7 30.8
14:45 1019 30.09 849 25.07 29.2 84.6 13 -1.7 29
14:50 1019 30.09 849 25.07 29.4 84.9 13 -2 28.4
14:55 1019 30.09 848 25.04 29.3 84.7 13 -2 28.3
15:00 1019 30.09 848 25.04 28.9 84.1 13 -2.3 27.8
15:05 1019 30.09 848 25.04 29 84.3 12 -2.4 27.7
15:10 1019 30.09 848 25.04 28.9 84.1 13 -2 28.5
15:15 1019 30.09 848 25.04 29 84.2 13 -2.1 28.1
15:20 1019 30.09 848 25.04 29.6 85.3 12 -2.4 27.7
15:25 1019 30.09 848 25.04 29.9 85.8 12 -2.7 27.1
15:30 1019 30.09 848 25.04 29.2 84.5 11 -3.5 25.8
15:35 1019 30.09 848 25.04 29.3 84.8 11 -3.4 25.8
15:40 1019 30.09 848 25.04 29 84.1 11 -3.7 25.3
15:45 1019 30.09 848 25.04 29.2 84.6 11 -3.8 25.2
15:50 1019 30.09 848 25.04 29.5 85.1 11 -4.2 24.5
15:55 1019 30.09 848 25.04 29.3 84.8 10 -4.5 23.9
16:00 1018 30.06 848 25.04 29.3 84.7 11 -4 24.8
16:05 1018 30.06 848 25.04 29.3 84.8 11 -4.1 24.6
16:10 1018 30.06 848 25.04 29.4 85 10 -4.6 23.8
16:15 1018 30.06 848 25.04 29.6 85.3 11 -3.9 25
16:20 1018 30.06 848 25.04 29.7 85.4 10 -4.3 24.2
16:25 1018 30.06 847 25.01 29 84.2 11 -3.9 25
16:30 1018 30.06 847 25.01 28.8 83.8 11 -4.2 24.4
16:35 1018 30.06 847 25.01 29.2 84.5 11 -4.4 24.1
16:40 1018 30.06 847 25.01 29.7 85.4 11 -4.1 24.7
16:45 1018 30.06 847 25.01 29.6 85.3 11 -3.1 26.5
16:50 1018 30.06 847 25.01 29.2 84.5 11 -4.5 23.9
16:55 1018 30.06 847 25.01 29.3 84.8 11 -4.3 24.2
17:00 1018 30.06 847 25.01 29.3 84.8 11 -3.7 25.4
17:05 1018 30.06 847 25.01 29.3 84.7 10 -4.6 23.7
17:10 1018 30.06 847 25.01 29.4 84.8 12 -3.1 26.4
17:15 1018 30.06 847 25.01 29.4 84.9 11 -3.6 25.6
17:20 1018 30.06 847 25.01 28.6 83.4 11 -4.8 23.4
17:25 1018 30.06 847 25.01 27.8 82.1 11 -4.8 23.4
17:30 1018 30.06 847 25.01 27.7 81.8 11 -4.9 23.1
17:35 1018 30.06 847 25.01 27.6 81.6 12 -4 24.8
17:40 1018 30.06 847 25.01 27.5 81.4 12 -4.2 24.4
17:45 1018 30.06 847 25.01 27.3 81.2 12 -4.8 23.3
17:50 1018 30.06 847 25.01 27.2 80.9 13 -3.4 26
17:55 1018 30.06 847 25.01 27.2 80.9 13 -3.6 25.6
18:00 1018 30.06 847 25.01 27.2 80.9 17 0.2 32.4
18:05 1018 30.06 847 25.01 26.8 80.3 14 -2.2 28
18:10 1017 30.03 847 25.01 26.4 79.5 17 -0.1 31.9
18:15 1018 30.06 847 25.01 26.2 79.1 17 -0.5 31.2
18:20 1018 30.06 847 25.01 25.9 78.7 17 -1.1 30
18:25 1018 30.06 847 25.01 26 78.7 16 -1.8 28.7
18:30 1017 30.03 847 25.01 25.6 78 20 1.2 34.1
18:35 1017 30.03 847 25.01 24.6 76.2 24 2.9 37.1
18:40 1017 30.03 847 25.01 23.7 74.6 22 1.1 33.9
18:45 1017 30.03 847 25.01 22.9 73.1 23 0.6 33
18:50 1017 30.03 847 25.01 22.3 72.2 24 1.1 34
18:55 1017 30.03 846 24.98 21.8 71.3 26 1.5 34.7
19:00 1017 30.03 847 25.01 21.3 70.4 24 0.1 32.1
19:05 1017 30.03 847 25.01 20.9 69.7 25 0.1 32.2
19:10 1017 30.03 847 25.01 20.7 69.2 25 0.3 32.6
19:15 1017 30.03 847 25.01 20.4 68.6 25 -0.4 31.4
19:20 1017 30.03 847 25.01 20.2 68.3 26 0.3 32.6
19:25 1017 30.03 847 25.01 20.1 68.1 26 0.3 32.6
19:30 1017 30.03 847 25.01 19.9 67.9 24 -0.8 30.5
19:35 1017 30.03 847 25.01 19.6 67.3 26 -0.5 31.2
19:40 1017 30.03 847 25.01 19.2 66.6 27 -0 31.9
19:45 1017 30.03 847 25.01 18.6 65.5 28 0.1 32.1
19:50 1017 30.03 847 25.01 18.3 65 28 -0.4 31.2
19:55 1017 30.03 847 25.01 18.5 65.3 24 -2 28.3
20:00 1018 30.06 847 25.01 19.1 66.4 22 -2.8 26.9
20:05 1017 30.03 847 25.01 19.6 67.2 21 -2.9 26.7
20:10 1018 30.06 847 25.01 19.5 67.1 22 -2.8 26.9
20:15 1017 30.03 847 25.01 19.5 67.1 22 -2.9 26.8
20:20 1017 30.03 847 25.01 19.4 67 23 -2 28.5
20:25 1018 30.06 847 25.01 19.3 66.7 22 -3.1 26.4
20:30 1018 30.06 847 25.01 19.4 66.8 22 -2.9 26.8
20:35 1018 30.06 847 25.01 19.2 66.6 23 -2.4 27.7
20:40 1018 30.06 847 25.01 19.1 66.3 23 -2.2 28
20:45 1018 30.06 847 25.01 19.1 66.3 24 -2.1 28.2
20:50 1018 30.06 847 25.01 19 66.3 26 -0.9 30.4
20:55 1018 30.06 847 25.01 19.1 66.3 23 -2.4 27.6
21:00 1018 30.06 847 25.01 19.3 66.7 22 -2.8 26.9
21:05 1018 30.06 847 25.01 19.9 67.8 20 -3.4 25.8
21:10 1018 30.06 847 25.01 20.5 68.8 19 -3.4 25.8
21:15 1018 30.06 847 25.01 20.5 68.9 20 -3.3 26.1
21:20 1018 30.06 847 25.01 20.5 68.9 19 -3.7 25.4
21:25 1018 30.06 847 25.01 20.7 69.3 19 -3.3 26
21:30 1018 30.06 847 25.01 20.5 68.9 20 -3.3 26.1
21:35 1018 30.06 847 25.01 20.3 68.6 20 -3.1 26.4
21:40 1018 30.06 847 25.01 20.1 68.2 20 -3.1 26.4
21:45 1018 30.06 847 25.01 20 68 20 -3.7 25.4
21:50 1018 30.06 847 25.01 20 67.9 20 -3.6 25.4
21:55 1018 30.06 847 25.01 20 68 20 -3.3 26.1
22:00 1018 30.06 847 25.01 19.8 67.7 22 -2.5 27.6
22:05 1018 30.06 847 25.01 19.6 67.3 21 -3.1 26.4
22:10 1018 30.06 847 25.01 19.5 67.2 21 -3.1 26.4
22:15 1018 30.06 847 25.01 19.6 67.4 21 -2.9 26.8
22:20 1018 30.06 847 25.01 19.7 67.5 21 -2.8 26.9
22:25 1018 30.06 847 25.01 19.7 67.4 20 -3.6 25.6
22:30 1018 30.06 847 25.01 19.7 67.4 21 -3.2 26.2
22:35 1018 30.06 847 25.01 19.3 66.7 20 -3.8 25.1
22:40 1018 30.06 847 25.01 19.4 66.9 21 -3.6 25.5
22:45 1018 30.06 847 25.01 19.3 66.7 21 -3.4 25.9
22:50 1018 30.06 847 25.01 19.1 66.4 22 -3.3 26.1
22:55 1018 30.06 847 25.01 19.1 66.4 22 -3.1 26.5
23:00 1018 30.06 847 25.01 19 66.1 22 -3 26.7
23:05 1018 30.06 847 25.01 18.9 66.1 22 -3.1 26.5
23:10 1018 30.06 847 25.01 18.9 65.9 22 -3 26.5
23:15 1017 30.03 847 25.01 18.6 65.4 23 -2.6 27.3
23:20 1017 30.03 847 25.01 18.3 64.9 23 -3.1 26.4
23:25 1017 30.03 847 25.01 18.3 64.9 24 -2.7 27.1
23:30 1017 30.03 847 25.01 18.2 64.8 23 -3 26.5
23:35 1017 30.03 847 25.01 18.1 64.6 24 -2.9 26.8
23:40 1017 30.03 846 24.98 18.3 64.9 22 -3.5 25.7
23:45 1017 30.03 847 25.01 18.3 64.9 23 -3 26.5
23:50 1017 30.03 846 24.98 18.1 64.7 22 -3.6 25.6
23:55 1017 30.03 846 24.98 18.3 64.9 23 -3.1 26.4
24:00 1017 30.03 846 24.98 18 64.5 25 -2.3 27.8